13:27
Airports
History
Links
Donate
Help keep this website running!
PayPal
Bitcoin
This page is community maintained. The information is intended for PC simulator navigation or reference.
Always use approved charts for navigation.
YLGD
LongdownEdited 30-Jun-2011
Longdown (YLGD)
Cressy, Tasmania, Australia (7302)
4
Lat/Lng:41° 41' 27.82" S / 147° 8' 35.11" E
-41.691061 / 147.143087
Elevation:522'ft / 159mMSL
ID / ICAO:YLGD
Runways:1
Longest:15-33
Grass 1,094m / 3,591ft
(Edited 2011-06-30) [ Sign in to Edit ]
Nearby Weather13:00 GMT 2018-01-19
Nearby weather at YMLT, Launceston located 10.7 nautical miles from YLGD
Altimeter: 29.91
Visibility: 6.2 statute miles
Wind: 12 knots (from 170°)
Temp: 16°c / 61°f
Humidity: 77.1%

METAR: YMLT 191300Z AUTO 17012KT 9999 // NCD 16/12 Q1013

(Powered by phpweather)
Runway 15 / 33
Dimensions:1094.4 x 60.1m 3591' x 197'ft
Surface:Grass
Runway 15 [A]Runway 33 [B]
Heading:344°TH 164°TH
Lat:
Lng:
41° 41' 44.94"S
147° 8' 41.68"E
41° 41' 10.69"S
147° 8' 28.55"E
User Notes and Comments
41° 41' 27.82" S / 147° 8' 35.11" E
Distance To
Airport ID:
Nearby Airports
(C) Launceston 10.7 NM
YMLT ( WX ) NNE 19°
4 Whitemore (Private) 12.9 NM
YWHI NW 304°
(C) Hagley 16.9 NM
YLTH NW 309°
4 Campbell Town (Quornhall) 27.7 NM
YCAE SE 133°
4 Deloraine (Westhorpe) 29.0 NM
YDEL WNW 294°
4 Tunbridge 31.3 NM
YTUN SSE 158°
4 Avoca (Private) 31.9 NM
YTAV ESE 104°
VFR Chart
Flight Planning at SkyVector.com